sensor_id;sensor_type;location;lat;lon;timestamp;temperature;humidity
451;DHT22;212;48.748;9.174;2022-08-19T00:00:17;20.70;1.00
451;DHT22;212;48.748;9.174;2022-08-19T00:02:44;20.70;1.00
451;DHT22;212;48.748;9.174;2022-08-19T00:05:13;20.70;1.00
451;DHT22;212;48.748;9.174;2022-08-19T00:07:40;20.70;1.00
451;DHT22;212;48.748;9.174;2022-08-19T00:10:09;20.70;1.00
451;DHT22;212;48.748;9.174;2022-08-19T00:12:37;20.60;1.00
451;DHT22;212;48.748;9.174;2022-08-19T00:15:10;20.60;1.00
451;DHT22;212;48.748;9.174;2022-08-19T00:17:39;20.60;1.00
451;DHT22;212;48.748;9.174;2022-08-19T00:20:07;20.60;1.00
451;DHT22;212;48.748;9.174;2022-08-19T00:22:34;20.60;1.00
451;DHT22;212;48.748;9.174;2022-08-19T00:25:01;20.50;1.00
451;DHT22;212;48.748;9.174;2022-08-19T00:27:27;20.50;1.00
451;DHT22;212;48.748;9.174;2022-08-19T00:29:54;20.50;1.00
451;DHT22;212;48.748;9.174;2022-08-19T00:32:22;20.50;1.00
451;DHT22;212;48.748;9.174;2022-08-19T00:34:49;20.50;1.00
451;DHT22;212;48.748;9.174;2022-08-19T00:37:18;20.50;1.00
451;DHT22;212;48.748;9.174;2022-08-19T00:39:47;20.30;1.00
451;DHT22;212;48.748;9.174;2022-08-19T00:42:14;20.40;1.00
451;DHT22;212;48.748;9.174;2022-08-19T00:44:41;20.50;1.00
451;DHT22;212;48.748;9.174;2022-08-19T00:47:08;20.40;1.00
451;DHT22;212;48.748;9.174;2022-08-19T00:49:41;20.50;1.00
451;DHT22;212;48.748;9.174;2022-08-19T00:52:13;20.50;1.00
451;DHT22;212;48.748;9.174;2022-08-19T00:54:41;20.60;1.00
451;DHT22;212;48.748;9.174;2022-08-19T00:57:15;20.50;1.00
451;DHT22;212;48.748;9.174;2022-08-19T00:59:45;20.40;1.00
451;DHT22;212;48.748;9.174;2022-08-19T01:02:14;20.60;1.00
451;DHT22;212;48.748;9.174;2022-08-19T01:04:42;20.50;1.00
451;DHT22;212;48.748;9.174;2022-08-19T01:07:09;20.40;1.00
451;DHT22;212;48.748;9.174;2022-08-19T01:09:36;20.60;1.00
451;DHT22;212;48.748;9.174;2022-08-19T01:12:03;20.50;1.00
451;DHT22;212;48.748;9.174;2022-08-19T01:14:30;20.50;1.00
451;DHT22;212;48.748;9.174;2022-08-19T01:16:57;20.50;1.00
451;DHT22;212;48.748;9.174;2022-08-19T01:19:28;20.40;1.00
451;DHT22;212;48.748;9.174;2022-08-19T01:22:01;20.40;1.00
451;DHT22;212;48.748;9.174;2022-08-19T01:24:30;20.30;1.00
451;DHT22;212;48.748;9.174;2022-08-19T01:26:57;20.40;1.00
451;DHT22;212;48.748;9.174;2022-08-19T01:29:25;20.40;1.00
451;DHT22;212;48.748;9.174;2022-08-19T01:31:51;20.30;1.00
451;DHT22;212;48.748;9.174;2022-08-19T01:34:19;20.40;1.00
451;DHT22;212;48.748;9.174;2022-08-19T01:36:47;20.30;1.00
451;DHT22;212;48.748;9.174;2022-08-19T01:39:16;20.30;1.00
451;DHT22;212;48.748;9.174;2022-08-19T01:41:44;20.30;1.00
451;DHT22;212;48.748;9.174;2022-08-19T01:44:11;20.30;1.00
451;DHT22;212;48.748;9.174;2022-08-19T01:46:38;20.30;1.00
451;DHT22;212;48.748;9.174;2022-08-19T01:49:06;20.30;1.00
451;DHT22;212;48.748;9.174;2022-08-19T01:51:34;20.40;1.00
451;DHT22;212;48.748;9.174;2022-08-19T01:54:00;20.30;1.00
451;DHT22;212;48.748;9.174;2022-08-19T01:56:27;20.40;1.00
451;DHT22;212;48.748;9.174;2022-08-19T01:58:57;20.50;1.00
451;DHT22;212;48.748;9.174;2022-08-19T02:01:24;20.40;1.00
451;DHT22;212;48.748;9.174;2022-08-19T02:03:51;20.50;1.00
451;DHT22;212;48.748;9.174;2022-08-19T02:06:20;20.50;1.00
451;DHT22;212;48.748;9.174;2022-08-19T02:08:46;20.50;1.00
451;DHT22;212;48.748;9.174;2022-08-19T02:11:20;20.40;1.00
451;DHT22;212;48.748;9.174;2022-08-19T02:13:46;20.50;1.00
451;DHT22;212;48.748;9.174;2022-08-19T02:16:16;20.40;1.00
451;DHT22;212;48.748;9.174;2022-08-19T02:18:43;20.40;1.00
451;DHT22;212;48.748;9.174;2022-08-19T02:21:10;20.20;1.00
451;DHT22;212;48.748;9.174;2022-08-19T02:23:38;20.20;1.00
451;DHT22;212;48.748;9.174;2022-08-19T02:26:05;20.20;1.00
451;DHT22;212;48.748;9.174;2022-08-19T02:28:32;20.00;1.00
451;DHT22;212;48.748;9.174;2022-08-19T02:30:59;20.10;1.00
451;DHT22;212;48.748;9.174;2022-08-19T02:33:29;19.90;1.00
451;DHT22;212;48.748;9.174;2022-08-19T02:35:55;19.90;1.00
451;DHT22;212;48.748;9.174;2022-08-19T02:38:22;20.00;1.00
451;DHT22;212;48.748;9.174;2022-08-19T02:40:52;20.20;1.00
451;DHT22;212;48.748;9.174;2022-08-19T02:43:19;20.20;1.00
451;DHT22;212;48.748;9.174;2022-08-19T02:45:47;20.10;1.00
451;DHT22;212;48.748;9.174;2022-08-19T02:48:14;20.10;1.00
451;DHT22;212;48.748;9.174;2022-08-19T02:50:43;20.20;1.00
451;DHT22;212;48.748;9.174;2022-08-19T02:53:11;20.20;1.00
451;DHT22;212;48.748;9.174;2022-08-19T02:55:42;20.00;1.00
451;DHT22;212;48.748;9.174;2022-08-19T02:58:09;20.00;1.00
451;DHT22;212;48.748;9.174;2022-08-19T03:00:36;20.10;1.00
451;DHT22;212;48.748;9.174;2022-08-19T03:03:07;20.00;1.00
451;DHT22;212;48.748;9.174;2022-08-19T03:05:34;19.90;1.00
451;DHT22;212;48.748;9.174;2022-08-19T03:08:02;19.80;1.00
451;DHT22;212;48.748;9.174;2022-08-19T03:10:31;19.80;1.00
451;DHT22;212;48.748;9.174;2022-08-19T03:12:58;19.90;1.00
451;DHT22;212;48.748;9.174;2022-08-19T03:15:25;19.70;1.00
451;DHT22;212;48.748;9.174;2022-08-19T03:17:51;19.70;1.00
451;DHT22;212;48.748;9.174;2022-08-19T03:20:18;19.70;1.00
451;DHT22;212;48.748;9.174;2022-08-19T03:22:45;19.60;1.00
451;DHT22;212;48.748;9.174;2022-08-19T03:25:13;19.60;1.00
451;DHT22;212;48.748;9.174;2022-08-19T03:27:40;19.50;1.00
451;DHT22;212;48.748;9.174;2022-08-19T03:30:07;19.50;1.00
451;DHT22;212;48.748;9.174;2022-08-19T03:32:35;19.50;1.00
451;DHT22;212;48.748;9.174;2022-08-19T03:35:01;19.50;1.00
451;DHT22;212;48.748;9.174;2022-08-19T03:37:28;19.40;1.00
451;DHT22;212;48.748;9.174;2022-08-19T03:39:55;19.60;1.00
451;DHT22;212;48.748;9.174;2022-08-19T03:42:23;19.70;1.00
451;DHT22;212;48.748;9.174;2022-08-19T03:44:52;19.50;1.00
451;DHT22;212;48.748;9.174;2022-08-19T03:47:18;19.50;1.00
451;DHT22;212;48.748;9.174;2022-08-19T03:49:45;19.60;1.00
451;DHT22;212;48.748;9.174;2022-08-19T03:52:12;19.60;1.00
451;DHT22;212;48.748;9.174;2022-08-19T03:54:39;19.60;1.00
451;DHT22;212;48.748;9.174;2022-08-19T03:57:06;19.40;1.00
451;DHT22;212;48.748;9.174;2022-08-19T03:59:37;19.40;1.00
451;DHT22;212;48.748;9.174;2022-08-19T04:02:07;19.30;1.00
451;DHT22;212;48.748;9.174;2022-08-19T04:04:35;19.40;1.00
451;DHT22;212;48.748;9.174;2022-08-19T04:07:03;19.40;1.00
451;DHT22;212;48.748;9.174;2022-08-19T04:09:29;19.30;1.00
451;DHT22;212;48.748;9.174;2022-08-19T04:11:57;19.40;1.00
451;DHT22;212;48.748;9.174;2022-08-19T04:14:26;19.50;1.00
451;DHT22;212;48.748;9.174;2022-08-19T04:16:55;19.40;1.00
451;DHT22;212;48.748;9.174;2022-08-19T04:19:22;19.40;1.00
451;DHT22;212;48.748;9.174;2022-08-19T04:21:51;19.30;1.00
451;DHT22;212;48.748;9.174;2022-08-19T04:24:20;19.30;1.00
451;DHT22;212;48.748;9.174;2022-08-19T04:26:47;19.40;1.00
451;DHT22;212;48.748;9.174;2022-08-19T04:29:17;19.20;1.00
451;DHT22;212;48.748;9.174;2022-08-19T04:31:44;19.30;1.00
451;DHT22;212;48.748;9.174;2022-08-19T04:34:15;19.40;1.00
451;DHT22;212;48.748;9.174;2022-08-19T04:36:44;19.20;1.00
451;DHT22;212;48.748;9.174;2022-08-19T04:39:14;19.00;1.00
451;DHT22;212;48.748;9.174;2022-08-19T04:41:41;19.10;1.00
451;DHT22;212;48.748;9.174;2022-08-19T04:44:26;19.10;1.00
451;DHT22;212;48.748;9.174;2022-08-19T04:46:56;19.10;1.00
451;DHT22;212;48.748;9.174;2022-08-19T04:49:24;19.10;1.00
451;DHT22;212;48.748;9.174;2022-08-19T04:51:53;19.10;1.00
451;DHT22;212;48.748;9.174;2022-08-19T04:54:22;19.20;1.00
451;DHT22;212;48.748;9.174;2022-08-19T04:56:51;19.20;1.00
451;DHT22;212;48.748;9.174;2022-08-19T04:59:17;19.30;1.00
451;DHT22;212;48.748;9.174;2022-08-19T05:01:46;19.30;1.00
451;DHT22;212;48.748;9.174;2022-08-19T05:04:15;19.30;1.00
451;DHT22;212;48.748;9.174;2022-08-19T05:06:44;19.30;1.00
451;DHT22;212;48.748;9.174;2022-08-19T05:09:10;19.30;1.00
451;DHT22;212;48.748;9.174;2022-08-19T05:11:37;19.30;1.00
451;DHT22;212;48.748;9.174;2022-08-19T05:14:05;19.20;1.00
451;DHT22;212;48.748;9.174;2022-08-19T05:16:32;19.30;1.00
451;DHT22;212;48.748;9.174;2022-08-19T05:18:59;19.20;1.00
451;DHT22;212;48.748;9.174;2022-08-19T05:21:44;19.20;1.00
451;DHT22;212;48.748;9.174;2022-08-19T05:24:30;19.20;1.00
451;DHT22;212;48.748;9.174;2022-08-19T05:27:01;19.20;1.00
451;DHT22;212;48.748;9.174;2022-08-19T05:29:28;19.30;1.00
451;DHT22;212;48.748;9.174;2022-08-19T05:31:56;19.30;1.00
451;DHT22;212;48.748;9.174;2022-08-19T05:34:24;19.40;1.00
451;DHT22;212;48.748;9.174;2022-08-19T05:36:55;19.60;1.00
451;DHT22;212;48.748;9.174;2022-08-19T05:39:24;19.70;1.00
451;DHT22;212;48.748;9.174;2022-08-19T05:41:54;19.80;1.00
451;DHT22;212;48.748;9.174;2022-08-19T05:44:22;19.80;1.00
451;DHT22;212;48.748;9.174;2022-08-19T05:46:49;19.70;1.00
451;DHT22;212;48.748;9.174;2022-08-19T05:49:18;19.80;1.00
451;DHT22;212;48.748;9.174;2022-08-19T05:51:45;19.70;1.00
451;DHT22;212;48.748;9.174;2022-08-19T05:54:13;19.80;1.00
451;DHT22;212;48.748;9.174;2022-08-19T05:56:40;19.90;1.00
451;DHT22;212;48.748;9.174;2022-08-19T05:59:08;20.00;1.00
451;DHT22;212;48.748;9.174;2022-08-19T06:01:37;19.90;1.00
451;DHT22;212;48.748;9.174;2022-08-19T06:04:04;19.80;1.00
451;DHT22;212;48.748;9.174;2022-08-19T06:06:32;19.80;1.00
451;DHT22;212;48.748;9.174;2022-08-19T06:09:00;19.70;1.00
451;DHT22;212;48.748;9.174;2022-08-19T06:11:35;19.70;1.00
451;DHT22;212;48.748;9.174;2022-08-19T06:14:05;19.60;1.00
451;DHT22;212;48.748;9.174;2022-08-19T06:16:34;19.60;1.00
451;DHT22;212;48.748;9.174;2022-08-19T06:19:05;19.40;1.00
451;DHT22;212;48.748;9.174;2022-08-19T06:21:34;19.40;1.00
451;DHT22;212;48.748;9.174;2022-08-19T06:24:03;19.40;1.00
451;DHT22;212;48.748;9.174;2022-08-19T06:26:30;19.30;1.00
451;DHT22;212;48.748;9.174;2022-08-19T06:28:58;19.30;1.00
451;DHT22;212;48.748;9.174;2022-08-19T06:31:27;19.40;1.00
451;DHT22;212;48.748;9.174;2022-08-19T06:33:54;19.30;1.00
451;DHT22;212;48.748;9.174;2022-08-19T06:36:23;19.30;1.00
451;DHT22;212;48.748;9.174;2022-08-19T06:38:52;19.30;1.00
451;DHT22;212;48.748;9.174;2022-08-19T06:41:19;19.30;1.00
451;DHT22;212;48.748;9.174;2022-08-19T06:43:46;19.40;1.00
451;DHT22;212;48.748;9.174;2022-08-19T06:46:17;19.40;1.00
451;DHT22;212;48.748;9.174;2022-08-19T06:48:45;19.50;1.00
451;DHT22;212;48.748;9.174;2022-08-19T06:51:12;19.40;1.00
451;DHT22;212;48.748;9.174;2022-08-19T06:53:41;19.50;1.00
451;DHT22;212;48.748;9.174;2022-08-19T06:56:13;19.70;1.00
451;DHT22;212;48.748;9.174;2022-08-19T06:58:40;19.60;1.00
451;DHT22;212;48.748;9.174;2022-08-19T07:01:07;19.50;1.00
451;DHT22;212;48.748;9.174;2022-08-19T07:03:37;19.30;1.00
451;DHT22;212;48.748;9.174;2022-08-19T07:06:06;19.40;1.00
451;DHT22;212;48.748;9.174;2022-08-19T07:08:33;19.30;1.00
451;DHT22;212;48.748;9.174;2022-08-19T07:11:02;19.30;1.00
451;DHT22;212;48.748;9.174;2022-08-19T07:13:29;19.40;1.00
451;DHT22;212;48.748;9.174;2022-08-19T07:16:03;19.30;1.00
451;DHT22;212;48.748;9.174;2022-08-19T07:18:30;19.40;1.00
451;DHT22;212;48.748;9.174;2022-08-19T07:21:04;19.50;1.00
451;DHT22;212;48.748;9.174;2022-08-19T07:23:32;19.40;1.00
451;DHT22;212;48.748;9.174;2022-08-19T07:26:04;19.50;1.00
451;DHT22;212;48.748;9.174;2022-08-19T07:28:31;19.50;1.00
451;DHT22;212;48.748;9.174;2022-08-19T07:30:58;19.50;1.00
451;DHT22;212;48.748;9.174;2022-08-19T07:33:27;19.20;1.00
451;DHT22;212;48.748;9.174;2022-08-19T07:35:55;19.30;1.00
451;DHT22;212;48.748;9.174;2022-08-19T07:38:23;19.30;1.00
451;DHT22;212;48.748;9.174;2022-08-19T07:40:50;19.40;1.00
451;DHT22;212;48.748;9.174;2022-08-19T07:43:17;19.40;1.00
451;DHT22;212;48.748;9.174;2022-08-19T07:45:46;19.40;1.00
451;DHT22;212;48.748;9.174;2022-08-19T07:48:13;19.40;1.00
451;DHT22;212;48.748;9.174;2022-08-19T07:50:40;19.30;1.00
451;DHT22;212;48.748;9.174;2022-08-19T07:53:07;19.20;1.00
451;DHT22;212;48.748;9.174;2022-08-19T07:55:35;19.20;1.00
451;DHT22;212;48.748;9.174;2022-08-19T07:58:01;19.20;1.00
451;DHT22;212;48.748;9.174;2022-08-19T08:00:30;19.20;1.00
451;DHT22;212;48.748;9.174;2022-08-19T08:02:56;19.30;1.00
451;DHT22;212;48.748;9.174;2022-08-19T08:05:23;19.30;1.00
451;DHT22;212;48.748;9.174;2022-08-19T08:08:08;19.20;1.00
451;DHT22;212;48.748;9.174;2022-08-19T08:11:05;19.30;1.00
451;DHT22;212;48.748;9.174;2022-08-19T08:13:34;19.10;1.00
451;DHT22;212;48.748;9.174;2022-08-19T08:16:02;19.10;1.00
451;DHT22;212;48.748;9.174;2022-08-19T08:18:29;19.20;1.00
451;DHT22;212;48.748;9.174;2022-08-19T08:20:57;19.20;1.00
451;DHT22;212;48.748;9.174;2022-08-19T08:23:24;19.30;1.00
451;DHT22;212;48.748;9.174;2022-08-19T08:25:52;19.30;1.00
451;DHT22;212;48.748;9.174;2022-08-19T08:28:21;19.10;1.00
451;DHT22;212;48.748;9.174;2022-08-19T08:30:49;19.10;1.00
451;DHT22;212;48.748;9.174;2022-08-19T08:33:18;19.30;1.00
451;DHT22;212;48.748;9.174;2022-08-19T08:35:45;19.30;1.00
451;DHT22;212;48.748;9.174;2022-08-19T08:38:13;19.30;1.00
451;DHT22;212;48.748;9.174;2022-08-19T08:40:44;19.30;1.00
451;DHT22;212;48.748;9.174;2022-08-19T08:43:20;19.30;1.00
451;DHT22;212;48.748;9.174;2022-08-19T08:45:54;19.40;1.00
451;DHT22;212;48.748;9.174;2022-08-19T08:48:30;19.40;1.00
451;DHT22;212;48.748;9.174;2022-08-19T08:51:00;19.40;1.00
451;DHT22;212;48.748;9.174;2022-08-19T08:53:28;19.50;1.00
451;DHT22;212;48.748;9.174;2022-08-19T08:55:57;19.50;1.00
451;DHT22;212;48.748;9.174;2022-08-19T08:58:29;19.50;1.00
451;DHT22;212;48.748;9.174;2022-08-19T09:00:59;19.60;1.00
451;DHT22;212;48.748;9.174;2022-08-19T09:03:27;19.60;1.00
451;DHT22;212;48.748;9.174;2022-08-19T09:06:00;19.50;1.00
451;DHT22;212;48.748;9.174;2022-08-19T09:08:41;19.50;1.00
451;DHT22;212;48.748;9.174;2022-08-19T09:11:12;19.50;1.00
451;DHT22;212;48.748;9.174;2022-08-19T09:13:44;19.50;1.00
451;DHT22;212;48.748;9.174;2022-08-19T09:16:20;19.70;1.00
451;DHT22;212;48.748;9.174;2022-08-19T09:18:54;19.90;1.00
451;DHT22;212;48.748;9.174;2022-08-19T09:21:23;20.00;1.00
451;DHT22;212;48.748;9.174;2022-08-19T09:23:51;20.00;1.00
451;DHT22;212;48.748;9.174;2022-08-19T09:26:21;20.00;1.00
451;DHT22;212;48.748;9.174;2022-08-19T09:28:50;20.00;1.00
451;DHT22;212;48.748;9.174;2022-08-19T09:31:20;20.00;1.00
451;DHT22;212;48.748;9.174;2022-08-19T09:33:48;20.10;1.00
451;DHT22;212;48.748;9.174;2022-08-19T09:36:17;20.00;1.00
451;DHT22;212;48.748;9.174;2022-08-19T09:38:45;19.90;1.00
451;DHT22;212;48.748;9.174;2022-08-19T09:41:15;19.90;1.00
451;DHT22;212;48.748;9.174;2022-08-19T09:43:44;20.00;1.00
451;DHT22;212;48.748;9.174;2022-08-19T09:46:12;20.00;1.00
451;DHT22;212;48.748;9.174;2022-08-19T09:48:40;19.90;1.00
451;DHT22;212;48.748;9.174;2022-08-19T09:51:09;20.10;1.00
451;DHT22;212;48.748;9.174;2022-08-19T09:53:37;20.10;1.00
451;DHT22;212;48.748;9.174;2022-08-19T09:56:05;20.10;1.00
451;DHT22;212;48.748;9.174;2022-08-19T09:58:32;20.10;1.00
451;DHT22;212;48.748;9.174;2022-08-19T10:01:01;20.10;1.00
451;DHT22;212;48.748;9.174;2022-08-19T10:03:29;20.20;1.00
451;DHT22;212;48.748;9.174;2022-08-19T10:05:59;20.10;1.00
451;DHT22;212;48.748;9.174;2022-08-19T10:08:29;20.30;1.00
451;DHT22;212;48.748;9.174;2022-08-19T10:10:57;20.40;1.00
451;DHT22;212;48.748;9.174;2022-08-19T10:13:25;20.50;1.00
451;DHT22;212;48.748;9.174;2022-08-19T10:15:53;20.60;1.00
451;DHT22;212;48.748;9.174;2022-08-19T10:18:22;20.50;1.00
451;DHT22;212;48.748;9.174;2022-08-19T10:20:50;20.60;1.00
451;DHT22;212;48.748;9.174;2022-08-19T10:23:20;20.70;1.00
451;DHT22;212;48.748;9.174;2022-08-19T10:25:47;20.50;1.00
451;DHT22;212;48.748;9.174;2022-08-19T10:28:14;20.50;1.00
451;DHT22;212;48.748;9.174;2022-08-19T10:30:41;20.60;1.00
451;DHT22;212;48.748;9.174;2022-08-19T10:33:07;20.70;1.00
451;DHT22;212;48.748;9.174;2022-08-19T10:35:34;20.70;1.00
451;DHT22;212;48.748;9.174;2022-08-19T10:38:01;20.70;1.00
451;DHT22;212;48.748;9.174;2022-08-19T10:40:29;20.70;1.00
451;DHT22;212;48.748;9.174;2022-08-19T10:42:56;20.70;1.00
451;DHT22;212;48.748;9.174;2022-08-19T10:45:23;20.90;1.00
451;DHT22;212;48.748;9.174;2022-08-19T10:47:52;20.90;1.00
451;DHT22;212;48.748;9.174;2022-08-19T10:50:18;20.70;1.00
451;DHT22;212;48.748;9.174;2022-08-19T10:53:04;20.90;1.00
451;DHT22;212;48.748;9.174;2022-08-19T10:55:35;20.90;1.00
451;DHT22;212;48.748;9.174;2022-08-19T10:58:20;21.00;1.00
451;DHT22;212;48.748;9.174;2022-08-19T11:00:52;21.20;1.00
451;DHT22;212;48.748;9.174;2022-08-19T11:03:19;21.10;1.00
451;DHT22;212;48.748;9.174;2022-08-19T11:05:46;21.10;1.00
451;DHT22;212;48.748;9.174;2022-08-19T11:08:14;21.10;1.00
451;DHT22;212;48.748;9.174;2022-08-19T11:10:42;21.00;1.00
451;DHT22;212;48.748;9.174;2022-08-19T11:13:09;20.90;1.00
451;DHT22;212;48.748;9.174;2022-08-19T11:15:36;21.00;1.00
451;DHT22;212;48.748;9.174;2022-08-19T11:18:03;20.80;1.00
451;DHT22;212;48.748;9.174;2022-08-19T11:20:30;20.90;1.00
451;DHT22;212;48.748;9.174;2022-08-19T11:22:57;20.90;1.00
451;DHT22;212;48.748;9.174;2022-08-19T11:25:24;20.80;1.00
451;DHT22;212;48.748;9.174;2022-08-19T11:27:52;21.00;1.00
451;DHT22;212;48.748;9.174;2022-08-19T11:30:19;21.20;1.00
451;DHT22;212;48.748;9.174;2022-08-19T11:32:45;21.40;1.00
451;DHT22;212;48.748;9.174;2022-08-19T11:35:13;21.50;1.00
451;DHT22;212;48.748;9.174;2022-08-19T11:37:40;21.80;1.00
451;DHT22;212;48.748;9.174;2022-08-19T11:40:08;21.80;1.00
451;DHT22;212;48.748;9.174;2022-08-19T11:42:35;22.10;1.00
451;DHT22;212;48.748;9.174;2022-08-19T11:45:20;22.30;1.00
451;DHT22;212;48.748;9.174;2022-08-19T11:47:47;22.20;1.00
451;DHT22;212;48.748;9.174;2022-08-19T11:50:13;22.30;1.00
451;DHT22;212;48.748;9.174;2022-08-19T11:52:40;22.40;1.00
451;DHT22;212;48.748;9.174;2022-08-19T11:55:08;22.70;1.00
451;DHT22;212;48.748;9.174;2022-08-19T11:57:35;22.50;1.00
451;DHT22;212;48.748;9.174;2022-08-19T12:00:04;22.40;1.00
451;DHT22;212;48.748;9.174;2022-08-19T12:02:33;22.50;1.00
451;DHT22;212;48.748;9.174;2022-08-19T12:04:59;22.40;1.00
451;DHT22;212;48.748;9.174;2022-08-19T12:07:27;22.50;1.00
451;DHT22;212;48.748;9.174;2022-08-19T12:09:54;22.60;1.00
451;DHT22;212;48.748;9.174;2022-08-19T12:12:21;22.90;1.00
451;DHT22;212;48.748;9.174;2022-08-19T12:14:49;22.90;1.00
451;DHT22;212;48.748;9.174;2022-08-19T12:17:22;22.90;1.00
451;DHT22;212;48.748;9.174;2022-08-19T12:19:50;22.70;1.00
451;DHT22;212;48.748;9.174;2022-08-19T12:22:16;22.70;1.00
451;DHT22;212;48.748;9.174;2022-08-19T12:24:43;22.50;1.00
451;DHT22;212;48.748;9.174;2022-08-19T12:27:10;22.50;1.00
451;DHT22;212;48.748;9.174;2022-08-19T12:29:37;22.50;1.00
451;DHT22;212;48.748;9.174;2022-08-19T12:32:03;22.60;1.00
451;DHT22;212;48.748;9.174;2022-08-19T12:34:31;22.60;1.00
451;DHT22;212;48.748;9.174;2022-08-19T12:37:02;22.60;1.00
451;DHT22;212;48.748;9.174;2022-08-19T12:39:30;22.70;1.00
451;DHT22;212;48.748;9.174;2022-08-19T12:41:57;23.00;1.00
451;DHT22;212;48.748;9.174;2022-08-19T12:44:24;22.80;1.00
451;DHT22;212;48.748;9.174;2022-08-19T12:46:50;22.70;1.00
451;DHT22;212;48.748;9.174;2022-08-19T12:49:17;22.40;1.00
451;DHT22;212;48.748;9.174;2022-08-19T12:51:44;22.20;1.00
451;DHT22;212;48.748;9.174;2022-08-19T12:54:12;22.00;1.00
451;DHT22;212;48.748;9.174;2022-08-19T12:56:40;21.70;1.00
451;DHT22;212;48.748;9.174;2022-08-19T12:59:07;21.70;1.00
451;DHT22;212;48.748;9.174;2022-08-19T13:01:34;21.60;1.00
451;DHT22;212;48.748;9.174;2022-08-19T13:04:01;21.70;1.00
451;DHT22;212;48.748;9.174;2022-08-19T13:06:28;21.70;1.00
451;DHT22;212;48.748;9.174;2022-08-19T13:08:55;21.80;1.00
451;DHT22;212;48.748;9.174;2022-08-19T13:11:23;21.90;1.00
451;DHT22;212;48.748;9.174;2022-08-19T13:13:52;21.90;1.00
451;DHT22;212;48.748;9.174;2022-08-19T13:16:20;21.90;1.00
451;DHT22;212;48.748;9.174;2022-08-19T13:18:48;21.90;1.00
451;DHT22;212;48.748;9.174;2022-08-19T13:21:18;21.80;1.00
451;DHT22;212;48.748;9.174;2022-08-19T13:23:46;21.60;1.00
451;DHT22;212;48.748;9.174;2022-08-19T13:26:15;21.50;1.00
451;DHT22;212;48.748;9.174;2022-08-19T13:28:44;21.30;1.00
451;DHT22;212;48.748;9.174;2022-08-19T13:31:31;21.20;1.00
451;DHT22;212;48.748;9.174;2022-08-19T13:34:17;21.00;1.00
451;DHT22;212;48.748;9.174;2022-08-19T13:36:45;20.90;1.00
451;DHT22;212;48.748;9.174;2022-08-19T13:39:11;20.70;1.00
451;DHT22;212;48.748;9.174;2022-08-19T13:41:44;20.80;1.00
451;DHT22;212;48.748;9.174;2022-08-19T13:44:14;20.70;1.00
451;DHT22;212;48.748;9.174;2022-08-19T13:46:43;20.70;1.00
451;DHT22;212;48.748;9.174;2022-08-19T13:49:11;20.60;1.00
451;DHT22;212;48.748;9.174;2022-08-19T13:51:38;20.70;1.00
451;DHT22;212;48.748;9.174;2022-08-19T13:54:05;20.60;1.00
451;DHT22;212;48.748;9.174;2022-08-19T13:56:32;20.60;1.00
451;DHT22;212;48.748;9.174;2022-08-19T13:58:58;20.50;1.00
451;DHT22;212;48.748;9.174;2022-08-19T14:01:26;20.40;1.00
451;DHT22;212;48.748;9.174;2022-08-19T14:03:53;20.30;1.00
451;DHT22;212;48.748;9.174;2022-08-19T14:06:20;20.30;1.00
451;DHT22;212;48.748;9.174;2022-08-19T14:08:47;20.30;1.00
451;DHT22;212;48.748;9.174;2022-08-19T14:11:14;20.20;1.00
451;DHT22;212;48.748;9.174;2022-08-19T14:13:42;20.10;1.00
451;DHT22;212;48.748;9.174;2022-08-19T14:16:10;20.10;1.00
451;DHT22;212;48.748;9.174;2022-08-19T14:18:39;20.10;1.00
451;DHT22;212;48.748;9.174;2022-08-19T14:21:06;20.10;1.00
451;DHT22;212;48.748;9.174;2022-08-19T14:23:33;20.20;1.00
451;DHT22;212;48.748;9.174;2022-08-19T14:26:07;20.20;1.00
451;DHT22;212;48.748;9.174;2022-08-19T14:28:34;20.20;1.00
451;DHT22;212;48.748;9.174;2022-08-19T14:31:01;20.20;1.00
451;DHT22;212;48.748;9.174;2022-08-19T14:33:27;20.40;1.00
451;DHT22;212;48.748;9.174;2022-08-19T14:35:56;20.40;1.00
451;DHT22;212;48.748;9.174;2022-08-19T14:38:22;20.50;1.00
451;DHT22;212;48.748;9.174;2022-08-19T14:40:49;20.60;1.00
451;DHT22;212;48.748;9.174;2022-08-19T14:43:17;20.60;1.00
451;DHT22;212;48.748;9.174;2022-08-19T14:45:44;20.70;1.00
451;DHT22;212;48.748;9.174;2022-08-19T14:48:11;20.90;1.00
451;DHT22;212;48.748;9.174;2022-08-19T14:50:38;21.10;1.00
451;DHT22;212;48.748;9.174;2022-08-19T14:53:07;21.30;1.00
451;DHT22;212;48.748;9.174;2022-08-19T14:55:34;21.40;1.00
451;DHT22;212;48.748;9.174;2022-08-19T14:58:01;21.50;1.00
451;DHT22;212;48.748;9.174;2022-08-19T15:00:28;21.50;1.00
451;DHT22;212;48.748;9.174;2022-08-19T15:02:55;21.60;1.00
451;DHT22;212;48.748;9.174;2022-08-19T15:05:22;21.60;1.00
451;DHT22;212;48.748;9.174;2022-08-19T15:07:48;21.50;1.00
451;DHT22;212;48.748;9.174;2022-08-19T15:10:16;21.50;1.00
451;DHT22;212;48.748;9.174;2022-08-19T15:12:43;21.40;1.00
451;DHT22;212;48.748;9.174;2022-08-19T15:15:12;21.30;1.00
451;DHT22;212;48.748;9.174;2022-08-19T15:17:40;21.40;1.00
451;DHT22;212;48.748;9.174;2022-08-19T15:20:08;21.30;1.00
451;DHT22;212;48.748;9.174;2022-08-19T15:22:35;21.40;1.00
451;DHT22;212;48.748;9.174;2022-08-19T15:25:03;21.60;1.00
451;DHT22;212;48.748;9.174;2022-08-19T15:27:31;21.70;1.00
451;DHT22;212;48.748;9.174;2022-08-19T15:29:58;21.80;1.00
451;DHT22;212;48.748;9.174;2022-08-19T15:32:25;22.00;1.00
451;DHT22;212;48.748;9.174;2022-08-19T15:34:53;22.30;1.00
451;DHT22;212;48.748;9.174;2022-08-19T15:37:20;22.40;1.00
451;DHT22;212;48.748;9.174;2022-08-19T15:39:48;22.60;1.00
451;DHT22;212;48.748;9.174;2022-08-19T15:42:15;22.60;1.00
451;DHT22;212;48.748;9.174;2022-08-19T15:44:43;22.80;1.00
451;DHT22;212;48.748;9.174;2022-08-19T15:47:10;22.80;1.00
451;DHT22;212;48.748;9.174;2022-08-19T15:49:37;22.80;1.00
451;DHT22;212;48.748;9.174;2022-08-19T15:52:04;22.80;1.00
451;DHT22;212;48.748;9.174;2022-08-19T15:54:32;22.60;1.00
451;DHT22;212;48.748;9.174;2022-08-19T15:56:59;22.60;1.00
451;DHT22;212;48.748;9.174;2022-08-19T15:59:45;22.60;1.00
451;DHT22;212;48.748;9.174;2022-08-19T16:02:29;22.40;1.00
451;DHT22;212;48.748;9.174;2022-08-19T16:05:16;22.40;1.00
451;DHT22;212;48.748;9.174;2022-08-19T16:08:02;22.50;1.00
451;DHT22;212;48.748;9.174;2022-08-19T16:10:29;22.30;1.00
451;DHT22;212;48.748;9.174;2022-08-19T16:12:56;22.30;1.00
451;DHT22;212;48.748;9.174;2022-08-19T16:15:25;22.60;1.00
451;DHT22;212;48.748;9.174;2022-08-19T16:17:53;22.80;1.00
451;DHT22;212;48.748;9.174;2022-08-19T16:20:20;22.90;1.00
451;DHT22;212;48.748;9.174;2022-08-19T16:22:47;22.80;1.00
451;DHT22;212;48.748;9.174;2022-08-19T16:25:14;22.60;1.00
451;DHT22;212;48.748;9.174;2022-08-19T16:27:41;22.50;1.00
451;DHT22;212;48.748;9.174;2022-08-19T16:30:08;22.50;1.00
451;DHT22;212;48.748;9.174;2022-08-19T16:32:41;22.20;1.00
451;DHT22;212;48.748;9.174;2022-08-19T16:35:08;22.10;1.00
451;DHT22;212;48.748;9.174;2022-08-19T16:37:35;21.90;1.00
451;DHT22;212;48.748;9.174;2022-08-19T16:40:03;21.60;1.00
451;DHT22;212;48.748;9.174;2022-08-19T16:42:31;21.50;1.00
451;DHT22;212;48.748;9.174;2022-08-19T16:44:58;21.40;1.00
451;DHT22;212;48.748;9.174;2022-08-19T16:47:25;21.30;1.00
451;DHT22;212;48.748;9.174;2022-08-19T16:49:53;21.30;1.00
451;DHT22;212;48.748;9.174;2022-08-19T16:52:20;21.20;1.00
451;DHT22;212;48.748;9.174;2022-08-19T16:54:51;21.20;1.00
451;DHT22;212;48.748;9.174;2022-08-19T16:57:18;21.10;1.00
451;DHT22;212;48.748;9.174;2022-08-19T16:59:45;21.20;1.00